createdAt,value
2022-11-15T00:00:19.746Z,976.16
2022-11-15T00:01:19.656Z,976.13
2022-11-15T00:02:19.624Z,976.13
2022-11-15T00:03:19.494Z,976.15
2022-11-15T00:04:19.412Z,976.13
2022-11-15T00:05:19.331Z,976.08
2022-11-15T00:06:19.245Z,976.12
2022-11-15T00:07:48.299Z,976.11
2022-11-15T00:08:19.186Z,976.10
2022-11-15T00:09:18.999Z,976.12
2022-11-15T00:10:18.917Z,976.11
2022-11-15T00:11:18.837Z,976.15
2022-11-15T00:12:18.751Z,976.15
2022-11-15T00:13:18.670Z,976.08
2022-11-15T00:14:18.689Z,976.08
2022-11-15T00:15:18.495Z,976.11
2022-11-15T00:16:18.416Z,976.13
2022-11-15T00:17:18.330Z,976.13
2022-11-15T00:18:18.248Z,976.12
2022-11-15T00:19:18.171Z,976.10
2022-11-15T00:20:18.089Z,976.11
2022-11-15T00:21:17.999Z,976.12
2022-11-15T00:22:17.917Z,976.12
2022-11-15T00:23:17.834Z,976.10
2022-11-15T00:24:17.755Z,976.09
2022-11-15T00:25:17.674Z,976.08
2022-11-15T00:26:17.600Z,976.08
2022-11-15T00:27:17.527Z,976.09
2022-11-15T00:28:17.423Z,976.12
2022-11-15T00:29:17.347Z,976.09
2022-11-15T00:30:17.261Z,976.09
2022-11-15T00:31:17.175Z,976.06
2022-11-15T00:32:17.094Z,976.07
2022-11-15T00:33:17.005Z,976.05
2022-11-15T00:34:16.933Z,976.08
2022-11-15T00:35:16.844Z,976.07
2022-11-15T00:36:16.763Z,976.12
2022-11-15T00:37:16.674Z,976.12
2022-11-15T00:38:16.595Z,976.10
2022-11-15T00:39:16.513Z,976.10
2022-11-15T00:40:16.429Z,976.08
2022-11-15T00:41:16.344Z,976.12
2022-11-15T00:42:16.263Z,976.12
2022-11-15T00:43:16.180Z,976.08
2022-11-15T00:44:16.099Z,976.07
2022-11-15T00:45:16.023Z,976.11
2022-11-15T00:46:15.932Z,976.08
2022-11-15T00:47:15.846Z,976.09
2022-11-15T00:48:15.764Z,976.08
2022-11-15T00:49:15.685Z,976.06
2022-11-15T00:50:15.715Z,976.07
2022-11-15T00:51:15.520Z,976.08
2022-11-15T00:52:15.431Z,976.06
2022-11-15T00:53:15.355Z,976.03
2022-11-15T00:54:15.273Z,976.05
2022-11-15T00:55:15.186Z,976.00
2022-11-15T00:56:15.101Z,976.01
2022-11-15T00:57:15.016Z,975.97
2022-11-15T00:58:14.938Z,976.01
2022-11-15T00:59:14.855Z,975.95
2022-11-15T01:00:14.770Z,975.94
2022-11-15T01:01:14.748Z,975.98
2022-11-15T01:02:14.600Z,975.95
2022-11-15T01:03:14.518Z,975.95
2022-11-15T01:04:14.436Z,975.94
2022-11-15T01:05:14.362Z,975.95
2022-11-15T01:06:14.270Z,975.97
2022-11-15T01:07:14.294Z,975.92
2022-11-15T01:08:14.111Z,975.92
2022-11-15T01:09:14.023Z,975.90
2022-11-15T01:10:13.943Z,975.92
2022-11-15T01:11:13.857Z,975.90
2022-11-15T01:12:13.770Z,975.89
2022-11-15T01:13:13.693Z,975.90
2022-11-15T01:14:13.608Z,975.85
2022-11-15T01:15:13.532Z,975.86
2022-11-15T01:16:13.439Z,975.88
2022-11-15T01:17:13.355Z,975.89
2022-11-15T01:18:13.272Z,975.87
2022-11-15T01:19:13.195Z,975.85
2022-11-15T01:20:13.110Z,975.81
2022-11-15T01:21:13.034Z,975.81
2022-11-15T01:22:12.943Z,975.76
2022-11-15T01:23:12.864Z,975.73
2022-11-15T01:24:12.775Z,975.73
2022-11-15T01:25:12.702Z,975.73
2022-11-15T01:26:12.610Z,975.68
2022-11-15T01:27:12.528Z,975.72
2022-11-15T01:28:12.447Z,975.71
2022-11-15T01:29:12.362Z,975.70
2022-11-15T01:30:12.274Z,975.66
2022-11-15T01:31:12.200Z,975.67
2022-11-15T01:32:12.113Z,975.61
2022-11-15T01:33:12.032Z,975.66
2022-11-15T01:34:11.947Z,975.64
2022-11-15T01:35:11.861Z,975.65
2022-11-15T01:36:11.778Z,975.68
2022-11-15T01:37:11.696Z,975.64
2022-11-15T01:38:11.612Z,975.66
2022-11-15T01:39:11.532Z,975.62
2022-11-15T01:40:11.442Z,975.66
2022-11-15T01:41:11.361Z,975.62
2022-11-15T01:42:11.279Z,975.60
2022-11-15T01:43:11.202Z,975.60
2022-11-15T01:44:11.113Z,975.62
2022-11-15T01:45:11.029Z,975.64
2022-11-15T01:46:10.946Z,975.64
2022-11-15T01:47:10.868Z,975.63
2022-11-15T01:48:10.782Z,975.58
2022-11-15T01:49:10.700Z,975.61
2022-11-15T01:50:10.610Z,975.61
2022-11-15T01:51:10.531Z,975.61
2022-11-15T01:52:10.446Z,975.56
2022-11-15T01:53:10.370Z,975.56
2022-11-15T01:54:10.283Z,975.54
2022-11-15T01:55:10.197Z,975.51
2022-11-15T01:56:10.118Z,975.47
2022-11-15T01:57:10.028Z,975.47
2022-11-15T01:58:09.957Z,975.45
2022-11-15T01:59:09.865Z,975.43
2022-11-15T02:00:09.797Z,975.42
2022-11-15T02:01:09.770Z,975.39
2022-11-15T02:02:09.627Z,975.36
2022-11-15T02:03:09.534Z,975.35
2022-11-15T02:04:09.446Z,975.34
2022-11-15T02:05:09.367Z,975.33
2022-11-15T02:06:09.280Z,975.32
2022-11-15T02:07:09.241Z,975.28
2022-11-15T02:08:09.126Z,975.30
2022-11-15T02:09:09.035Z,975.29
2022-11-15T02:10:08.947Z,975.28
2022-11-15T02:11:08.862Z,975.29
2022-11-15T02:12:08.782Z,975.25
2022-11-15T02:13:08.701Z,975.25
2022-11-15T02:14:08.614Z,975.23
2022-11-15T02:15:08.539Z,975.20
2022-11-15T02:16:08.450Z,975.17
2022-11-15T02:17:08.366Z,975.19
2022-11-15T02:18:08.279Z,975.18
2022-11-15T02:19:08.203Z,975.15
2022-11-15T02:20:08.113Z,975.12
2022-11-15T02:21:08.032Z,975.09
2022-11-15T02:22:07.950Z,975.09
2022-11-15T02:23:07.869Z,975.10
2022-11-15T02:24:07.787Z,975.10
2022-11-15T02:25:07.699Z,975.10
2022-11-15T02:26:07.615Z,975.11
2022-11-15T02:27:07.536Z,975.08
2022-11-15T02:28:07.455Z,975.07
2022-11-15T02:29:07.367Z,975.12
2022-11-15T02:30:07.310Z,975.04
2022-11-15T02:31:07.196Z,975.05
2022-11-15T02:32:07.113Z,975.01
2022-11-15T02:33:07.035Z,975.02
2022-11-15T02:34:06.947Z,974.96
2022-11-15T02:35:06.866Z,974.92
2022-11-15T02:36:06.782Z,974.88
2022-11-15T02:37:06.702Z,974.90
2022-11-15T02:38:06.613Z,974.89
2022-11-15T02:39:06.532Z,974.93
2022-11-15T02:40:06.450Z,974.93
2022-11-15T02:41:06.365Z,974.94
2022-11-15T02:42:06.276Z,974.94
2022-11-15T02:43:08.409Z,974.95
2022-11-15T02:44:06.112Z,974.93
2022-11-15T02:45:06.028Z,974.94
2022-11-15T02:46:05.943Z,974.92
2022-11-15T02:47:05.866Z,974.87
2022-11-15T02:48:05.776Z,974.87
2022-11-15T02:49:05.697Z,974.82
2022-11-15T02:50:05.614Z,974.83
2022-11-15T02:51:05.530Z,974.80
2022-11-15T02:52:05.446Z,974.81
2022-11-15T02:53:05.363Z,974.81
2022-11-15T02:54:05.280Z,974.81
2022-11-15T02:55:05.194Z,974.79
2022-11-15T02:56:05.112Z,974.74
2022-11-15T02:57:05.031Z,974.74
2022-11-15T02:58:04.945Z,974.72
2022-11-15T02:59:04.868Z,974.70
2022-11-15T03:00:04.778Z,974.69
2022-11-15T03:01:04.782Z,974.70
2022-11-15T03:02:04.612Z,974.66
2022-11-15T03:03:04.528Z,974.65
2022-11-15T03:04:04.441Z,974.65
2022-11-15T03:05:04.359Z,974.66
2022-11-15T03:06:04.274Z,974.64
2022-11-15T03:07:04.254Z,974.65
2022-11-15T03:08:04.107Z,974.61
2022-11-15T03:09:04.028Z,974.62
2022-11-15T03:10:03.943Z,974.63
2022-11-15T03:11:03.863Z,974.63
2022-11-15T03:12:03.779Z,974.61
2022-11-15T03:13:03.695Z,974.60
2022-11-15T03:14:03.613Z,974.63
2022-11-15T03:15:03.527Z,974.56
2022-11-15T03:16:03.438Z,974.59
2022-11-15T03:17:03.360Z,974.58
2022-11-15T03:18:03.275Z,974.53
2022-11-15T03:19:03.192Z,974.56
2022-11-15T03:20:03.116Z,974.52
2022-11-15T03:21:03.024Z,974.50
2022-11-15T03:22:02.941Z,974.47
2022-11-15T03:23:02.860Z,974.44
2022-11-15T03:24:02.774Z,974.45
2022-11-15T03:25:02.689Z,974.45
2022-11-15T03:26:02.606Z,974.41
2022-11-15T03:27:02.535Z,974.41
2022-11-15T03:28:02.440Z,974.41
2022-11-15T03:29:02.353Z,974.41
2022-11-15T03:30:02.270Z,974.41
2022-11-15T03:31:02.190Z,974.42
2022-11-15T03:32:02.105Z,974.39
2022-11-15T03:33:02.019Z,974.40
2022-11-15T03:34:01.949Z,974.41
2022-11-15T03:35:01.856Z,974.42
2022-11-15T03:36:01.775Z,974.41
2022-11-15T03:37:01.684Z,974.42
2022-11-15T03:38:01.629Z,974.36
2022-11-15T03:39:01.534Z,974.34
2022-11-15T03:40:01.433Z,974.32
2022-11-15T03:41:01.352Z,974.30
2022-11-15T03:42:01.267Z,974.28
2022-11-15T03:43:01.188Z,974.32
2022-11-15T03:44:01.098Z,974.31
2022-11-15T03:45:01.017Z,974.32
2022-11-15T03:46:00.946Z,974.29
2022-11-15T03:47:00.850Z,974.30
2022-11-15T03:48:00.763Z,974.27
2022-11-15T03:49:00.685Z,974.28
2022-11-15T03:50:00.597Z,974.30
2022-11-15T03:51:00.517Z,974.27
2022-11-15T03:52:00.435Z,974.26
2022-11-15T03:53:00.350Z,974.27
2022-11-15T03:54:00.264Z,974.29
2022-11-15T03:55:00.183Z,974.27
2022-11-15T03:56:00.109Z,974.27
2022-11-15T03:57:00.015Z,974.25
2022-11-15T03:57:59.925Z,974.25
2022-11-15T03:58:59.844Z,974.25
2022-11-15T03:59:59.758Z,974.23
2022-11-15T04:00:59.718Z,974.25
2022-11-15T04:01:59.592Z,974.27
2022-11-15T04:02:59.509Z,974.29
2022-11-15T04:03:59.423Z,974.28
2022-11-15T04:04:59.347Z,974.26
2022-11-15T04:05:59.259Z,974.31
2022-11-15T04:06:59.262Z,974.32
2022-11-15T04:07:59.089Z,974.34
2022-11-15T04:08:59.005Z,974.36
2022-11-15T04:09:58.925Z,974.37
2022-11-15T04:10:59.026Z,974.33
2022-11-15T04:11:58.758Z,974.32
2022-11-15T04:12:58.673Z,974.36
2022-11-15T04:13:58.591Z,974.32
2022-11-15T04:14:58.510Z,974.31
2022-11-15T04:15:58.421Z,974.27
2022-11-15T04:16:58.340Z,974.27
2022-11-15T04:17:58.252Z,974.27
2022-11-15T04:18:58.172Z,974.29
2022-11-15T04:19:58.092Z,974.27
2022-11-15T04:20:58.003Z,974.26
2022-11-15T04:21:57.919Z,974.23
2022-11-15T04:22:57.837Z,974.26
2022-11-15T04:23:57.753Z,974.22
2022-11-15T04:24:57.669Z,974.19
2022-11-15T04:25:57.584Z,974.18
2022-11-15T04:26:57.525Z,974.17
2022-11-15T04:27:57.420Z,974.21
2022-11-15T04:28:57.333Z,974.17
2022-11-15T04:29:57.250Z,974.20
2022-11-15T04:30:57.175Z,974.29
2022-11-15T04:31:57.085Z,974.33
2022-11-15T04:32:56.997Z,974.28
2022-11-15T04:33:56.915Z,974.23
2022-11-15T04:34:56.828Z,974.20
2022-11-15T04:35:56.790Z,974.23
2022-11-15T04:36:56.665Z,974.24
2022-11-15T04:37:56.577Z,974.24
2022-11-15T04:38:56.491Z,974.27
2022-11-15T04:39:56.407Z,974.25
2022-11-15T04:40:56.329Z,974.22
2022-11-15T04:41:56.243Z,974.20
2022-11-15T04:43:02.259Z,974.19
2022-11-15T04:43:56.076Z,974.21
2022-11-15T04:44:55.988Z,974.19
2022-11-15T04:45:55.906Z,974.18
2022-11-15T04:46:55.825Z,974.15
2022-11-15T04:47:55.737Z,974.16
2022-11-15T04:48:58.831Z,974.14
2022-11-15T04:49:55.582Z,974.14
2022-11-15T04:50:55.489Z,974.13
2022-11-15T04:51:55.400Z,974.15
2022-11-15T04:52:55.315Z,974.13
2022-11-15T04:53:55.237Z,974.17
2022-11-15T04:54:55.151Z,974.13
2022-11-15T04:55:55.068Z,974.11
2022-11-15T04:56:54.985Z,974.09
2022-11-15T04:57:54.895Z,974.10
2022-11-15T04:58:54.817Z,974.10
2022-11-15T04:59:54.729Z,974.04
2022-11-15T05:00:54.711Z,974.03
2022-11-15T05:01:54.564Z,974.03
2022-11-15T05:02:54.477Z,974.01
2022-11-15T05:03:54.393Z,973.97
2022-11-15T05:04:54.308Z,973.87
2022-11-15T05:05:54.221Z,973.90
2022-11-15T05:06:54.187Z,973.89
2022-11-15T05:07:54.063Z,973.89
2022-11-15T05:08:53.973Z,973.86
2022-11-15T05:09:53.889Z,973.84
2022-11-15T05:10:53.801Z,973.79
2022-11-15T05:11:53.719Z,973.77
2022-11-15T05:12:53.640Z,973.77
2022-11-15T05:13:53.554Z,973.79
2022-11-15T05:14:53.471Z,973.75
2022-11-15T05:15:53.384Z,973.76
2022-11-15T05:16:53.301Z,973.76
2022-11-15T05:17:53.217Z,973.76
2022-11-15T05:18:53.129Z,973.76
2022-11-15T05:19:53.049Z,973.75
2022-11-15T05:20:52.963Z,973.74
2022-11-15T05:21:52.882Z,973.74
2022-11-15T05:22:52.794Z,973.73
2022-11-15T05:23:52.717Z,973.74
2022-11-15T05:24:52.629Z,973.70
2022-11-15T05:25:52.546Z,973.74
2022-11-15T05:26:52.463Z,973.75
2022-11-15T05:27:52.379Z,973.72
2022-11-15T05:28:52.290Z,973.74
2022-11-15T05:29:52.208Z,973.75
2022-11-15T05:30:52.126Z,973.76
2022-11-15T05:31:52.039Z,973.78
2022-11-15T05:32:51.958Z,973.79
2022-11-15T05:33:51.876Z,973.81
2022-11-15T05:34:51.785Z,973.79
2022-11-15T05:35:51.701Z,973.79
2022-11-15T05:36:51.618Z,973.73
2022-11-15T05:37:51.538Z,973.76
2022-11-15T05:38:51.454Z,973.76
2022-11-15T05:39:51.371Z,973.75
2022-11-15T05:40:51.282Z,973.73
2022-11-15T05:41:51.200Z,973.72
2022-11-15T05:42:51.112Z,973.75
2022-11-15T05:43:51.030Z,973.73
2022-11-15T05:44:50.951Z,973.70
2022-11-15T05:45:50.863Z,973.74
2022-11-15T05:46:50.776Z,973.73
2022-11-15T05:47:50.695Z,973.70
2022-11-15T05:48:50.606Z,973.69
2022-11-15T05:49:50.526Z,973.67
2022-11-15T05:50:50.443Z,973.72
2022-11-15T05:51:50.361Z,973.68
2022-11-15T05:52:50.274Z,973.66
2022-11-15T05:53:50.190Z,973.67
2022-11-15T05:54:50.110Z,973.68
2022-11-15T05:55:50.021Z,973.68
2022-11-15T05:56:49.933Z,973.70
2022-11-15T05:57:49.852Z,973.67
2022-11-15T05:58:49.766Z,973.68
2022-11-15T05:59:49.686Z,973.70
2022-11-15T06:00:49.596Z,973.65
2022-11-15T06:01:49.551Z,973.68
2022-11-15T06:02:49.429Z,973.67
2022-11-15T06:03:49.354Z,973.64
2022-11-15T06:04:49.262Z,973.63
2022-11-15T06:05:49.181Z,973.63
2022-11-15T06:06:49.130Z,973.62
2022-11-15T06:07:49.010Z,973.63
2022-11-15T06:08:48.930Z,973.68
2022-11-15T06:09:48.843Z,973.67
2022-11-15T06:10:48.762Z,973.71
2022-11-15T06:11:48.680Z,973.71
2022-11-15T06:12:48.591Z,973.78
2022-11-15T06:13:48.503Z,973.75
2022-11-15T06:14:48.421Z,973.75
2022-11-15T06:15:48.340Z,973.77
2022-11-15T06:16:48.261Z,973.81
2022-11-15T06:17:48.175Z,973.80
2022-11-15T06:18:48.086Z,973.77
2022-11-15T06:19:48.006Z,973.78
2022-11-15T06:20:47.914Z,973.74
2022-11-15T06:21:47.833Z,973.76
2022-11-15T06:22:47.744Z,973.80
2022-11-15T06:23:47.663Z,973.83
2022-11-15T06:24:47.579Z,973.84
2022-11-15T06:25:47.493Z,973.82
2022-11-15T06:26:47.411Z,973.85
2022-11-15T06:27:47.325Z,973.80
2022-11-15T06:28:47.244Z,973.81
2022-11-15T06:29:47.162Z,973.79
2022-11-15T06:30:52.038Z,973.79
2022-11-15T06:31:46.989Z,973.80
2022-11-15T06:32:46.916Z,973.81
2022-11-15T06:33:46.826Z,973.80
2022-11-15T06:34:46.738Z,973.80
2022-11-15T06:35:46.655Z,973.80
2022-11-15T06:36:46.566Z,973.79
2022-11-15T06:37:46.489Z,973.85
2022-11-15T06:38:46.401Z,973.82
2022-11-15T06:39:46.315Z,973.79
2022-11-15T06:40:46.226Z,973.81
2022-11-15T06:41:46.149Z,973.80
2022-11-15T06:42:46.059Z,973.80
2022-11-15T06:43:45.982Z,973.84
2022-11-15T06:44:45.895Z,973.85
2022-11-15T06:45:45.809Z,973.88
2022-11-15T06:46:45.724Z,973.89
2022-11-15T06:47:45.645Z,973.89
2022-11-15T06:48:45.554Z,973.92
2022-11-15T06:49:45.471Z,973.89
2022-11-15T06:50:45.394Z,973.94
2022-11-15T06:51:45.303Z,973.94
2022-11-15T06:52:45.218Z,973.90
2022-11-15T06:53:45.140Z,973.91
2022-11-15T06:54:45.049Z,973.92
2022-11-15T06:55:44.969Z,973.89
2022-11-15T06:56:44.884Z,973.89
2022-11-15T06:57:44.804Z,973.92
2022-11-15T06:58:44.714Z,973.91
2022-11-15T06:59:44.636Z,973.94
2022-11-15T07:00:44.544Z,973.94
2022-11-15T07:01:44.492Z,973.90
2022-11-15T07:02:44.377Z,973.91
2022-11-15T07:03:44.295Z,973.92
2022-11-15T07:04:44.208Z,973.93
2022-11-15T07:05:44.125Z,973.91
2022-11-15T07:06:44.055Z,973.91
2022-11-15T07:07:43.957Z,973.91
2022-11-15T07:08:43.874Z,973.92
2022-11-15T07:09:43.788Z,973.89
2022-11-15T07:10:43.709Z,973.90
2022-11-15T07:11:43.623Z,973.89
2022-11-15T07:12:43.533Z,973.89
2022-11-15T07:13:43.459Z,973.87
2022-11-15T07:14:43.369Z,973.87
2022-11-15T07:15:43.285Z,973.85
2022-11-15T07:16:43.199Z,973.85
2022-11-15T07:17:43.117Z,973.82
2022-11-15T07:18:43.032Z,973.79
2022-11-15T07:19:42.947Z,973.76
2022-11-15T07:20:42.861Z,973.72
2022-11-15T07:21:42.783Z,973.68
2022-11-15T07:22:42.698Z,973.71
2022-11-15T07:23:42.616Z,973.66
2022-11-15T07:24:42.524Z,973.71
2022-11-15T07:25:42.451Z,973.64
2022-11-15T07:26:42.369Z,973.64
2022-11-15T07:27:42.282Z,973.64
2022-11-15T07:28:42.196Z,973.70
2022-11-15T07:29:42.109Z,973.71
2022-11-15T07:30:45.222Z,973.70
2022-11-15T07:31:41.945Z,973.68
2022-11-15T07:32:41.858Z,973.69
2022-11-15T07:33:41.778Z,973.73
2022-11-15T07:34:41.692Z,973.74
2022-11-15T07:35:41.609Z,973.72
2022-11-15T07:36:41.526Z,973.73
2022-11-15T07:37:41.441Z,973.75
2022-11-15T07:38:43.149Z,973.73
2022-11-15T07:39:41.275Z,973.71
2022-11-15T07:40:41.195Z,973.71
2022-11-15T07:41:41.113Z,973.68
2022-11-15T07:42:41.024Z,973.69
2022-11-15T07:43:40.940Z,973.69
2022-11-15T07:44:40.863Z,973.66
2022-11-15T07:45:40.781Z,973.64
2022-11-15T07:46:40.692Z,973.68
2022-11-15T07:47:40.609Z,973.68
2022-11-15T07:48:44.462Z,973.70
2022-11-15T07:49:40.446Z,973.66
2022-11-15T07:50:40.362Z,973.70
2022-11-15T07:51:40.289Z,973.72
2022-11-15T07:52:40.203Z,973.68
2022-11-15T07:53:40.120Z,973.65
2022-11-15T07:54:40.048Z,973.66
2022-11-15T07:55:39.951Z,973.63
2022-11-15T07:56:39.864Z,973.68
2022-11-15T07:57:39.785Z,973.68
2022-11-15T07:58:39.704Z,973.70
2022-11-15T07:59:39.622Z,973.62
2022-11-15T08:00:39.534Z,973.64
2022-11-15T08:01:39.573Z,973.62
2022-11-15T08:02:39.555Z,973.62
2022-11-15T08:03:39.294Z,973.61
2022-11-15T08:04:39.206Z,973.64
2022-11-15T08:05:39.130Z,973.63
2022-11-15T08:06:39.044Z,973.61
2022-11-15T08:07:38.964Z,973.62
2022-11-15T08:08:38.883Z,973.66
2022-11-15T08:09:38.797Z,973.61
2022-11-15T08:10:40.852Z,973.60
2022-11-15T08:11:38.638Z,973.62
2022-11-15T08:12:38.553Z,973.62
2022-11-15T08:13:38.470Z,973.67
2022-11-15T08:14:38.386Z,973.59
2022-11-15T08:15:38.313Z,973.62
2022-11-15T08:16:38.223Z,973.60
2022-11-15T08:17:38.145Z,973.58
2022-11-15T08:18:38.061Z,973.60
2022-11-15T08:19:37.980Z,973.59
2022-11-15T08:20:37.896Z,973.54
2022-11-15T08:21:37.823Z,973.56
2022-11-15T08:22:37.732Z,973.56
2022-11-15T08:23:37.655Z,973.55
2022-11-15T08:24:37.571Z,973.56
2022-11-15T08:25:37.494Z,973.56
2022-11-15T08:26:37.413Z,973.60
2022-11-15T08:27:37.380Z,973.54
2022-11-15T08:28:37.249Z,973.54
2022-11-15T08:29:37.169Z,973.56
2022-11-15T08:30:37.091Z,973.51
2022-11-15T08:31:37.010Z,973.52
2022-11-15T08:32:36.925Z,973.52
2022-11-15T08:33:36.855Z,973.50
2022-11-15T08:34:36.765Z,973.49
2022-11-15T08:35:36.680Z,973.50
2022-11-15T08:36:43.268Z,973.43
2022-11-15T08:37:36.520Z,973.45
2022-11-15T08:38:36.438Z,973.44
2022-11-15T08:39:36.366Z,973.42
2022-11-15T08:40:36.278Z,973.44
2022-11-15T08:41:36.196Z,973.36
2022-11-15T08:42:36.115Z,973.38
2022-11-15T08:43:36.038Z,973.37
2022-11-15T08:44:35.960Z,973.36
2022-11-15T08:45:35.876Z,973.39
2022-11-15T08:46:35.798Z,973.33
2022-11-15T08:47:35.716Z,973.33
2022-11-15T08:48:35.794Z,973.29
2022-11-15T08:49:35.549Z,973.33
2022-11-15T08:50:35.479Z,973.38
2022-11-15T08:51:35.398Z,973.32
2022-11-15T08:52:35.307Z,973.36
2022-11-15T08:53:35.227Z,973.30
2022-11-15T08:54:35.150Z,973.30
2022-11-15T08:55:35.075Z,973.32
2022-11-15T08:56:34.986Z,973.33
2022-11-15T08:57:34.908Z,973.31
2022-11-15T08:58:35.148Z,973.33
2022-11-15T08:59:34.747Z,973.35
2022-11-15T09:00:34.675Z,973.34
2022-11-15T09:01:34.605Z,973.32
2022-11-15T09:02:34.510Z,973.33
2022-11-15T09:03:34.429Z,973.33
2022-11-15T09:04:34.347Z,973.32
2022-11-15T09:05:34.270Z,973.36
2022-11-15T09:06:34.184Z,973.39
2022-11-15T09:07:34.167Z,973.38
2022-11-15T09:08:47.465Z,973.32
2022-11-15T09:09:33.950Z,973.32
2022-11-15T09:10:33.869Z,973.30
2022-11-15T09:11:33.806Z,973.32
2022-11-15T09:12:33.707Z,973.30
2022-11-15T09:13:33.631Z,973.30
2022-11-15T09:14:33.555Z,973.28
2022-11-15T09:15:33.471Z,973.25
2022-11-15T09:16:33.388Z,973.23
2022-11-15T09:17:33.309Z,973.22
2022-11-15T09:18:33.572Z,973.20
2022-11-15T09:19:33.150Z,973.22
2022-11-15T09:20:33.073Z,973.19
2022-11-15T09:21:32.991Z,973.21
2022-11-15T09:22:32.916Z,973.23
2022-11-15T09:23:32.835Z,973.23
2022-11-15T09:24:32.756Z,973.21
2022-11-15T09:25:32.675Z,973.23
2022-11-15T09:26:32.598Z,973.21
2022-11-15T09:27:32.518Z,973.20
2022-11-15T09:28:32.611Z,973.22
2022-11-15T09:29:32.359Z,973.26
2022-11-15T09:30:32.352Z,973.25
2022-11-15T09:31:32.202Z,973.23
2022-11-15T09:32:37.870Z,973.24
2022-11-15T09:33:32.263Z,973.21
2022-11-15T09:34:31.962Z,973.20
2022-11-15T09:35:31.887Z,973.20
2022-11-15T09:36:31.809Z,973.17
2022-11-15T09:37:31.728Z,973.17
2022-11-15T09:38:31.849Z,973.14
2022-11-15T09:39:31.569Z,973.16
2022-11-15T09:40:31.487Z,973.09
2022-11-15T09:41:31.406Z,973.09
2022-11-15T09:42:31.330Z,973.08
2022-11-15T09:43:31.257Z,973.04
2022-11-15T09:44:31.176Z,973.07
2022-11-15T09:45:31.105Z,973.05
2022-11-15T09:46:31.015Z,973.01
2022-11-15T09:47:30.935Z,973.00
2022-11-15T09:48:31.155Z,973.00
2022-11-15T09:49:30.780Z,973.02
2022-11-15T09:50:30.704Z,973.00
2022-11-15T09:51:30.629Z,973.01
2022-11-15T09:52:30.553Z,972.99
2022-11-15T09:54:01.089Z,972.97
2022-11-15T09:54:52.231Z,973.00
2022-11-15T09:55:30.307Z,972.99
2022-11-15T09:56:30.235Z,972.99
2022-11-15T09:57:30.152Z,972.96
2022-11-15T09:58:30.664Z,972.97
2022-11-15T09:59:29.998Z,972.92
2022-11-15T10:00:47.383Z,972.90
2022-11-15T10:01:29.876Z,972.87
2022-11-15T10:02:29.763Z,972.82
2022-11-15T10:03:29.684Z,972.85
2022-11-15T10:04:29.611Z,972.83
2022-11-15T10:05:29.531Z,972.82
2022-11-15T10:06:29.449Z,972.82
2022-11-15T10:07:29.464Z,972.82
2022-11-15T10:08:29.590Z,972.80
2022-11-15T10:09:29.215Z,972.80
2022-11-15T10:10:29.232Z,972.82
2022-11-15T10:11:38.234Z,972.81
2022-11-15T10:12:28.986Z,972.75
2022-11-15T10:13:28.903Z,972.78
2022-11-15T10:14:28.838Z,972.75
2022-11-15T10:15:28.753Z,972.73
2022-11-15T10:16:28.671Z,972.70
2022-11-15T10:17:28.592Z,972.69
2022-11-15T10:18:28.745Z,972.70
2022-11-15T10:19:28.438Z,972.63
2022-11-15T10:20:28.367Z,972.66
2022-11-15T10:21:28.284Z,972.61
2022-11-15T10:22:28.209Z,972.61
2022-11-15T10:23:28.131Z,972.61
2022-11-15T10:24:28.052Z,972.56
2022-11-15T10:25:27.982Z,972.56
2022-11-15T10:26:27.894Z,972.51
2022-11-15T10:27:27.818Z,972.54
2022-11-15T10:28:27.737Z,972.47
2022-11-15T10:29:27.683Z,972.48
2022-11-15T10:30:27.584Z,972.45
2022-11-15T10:31:27.507Z,972.41
2022-11-15T10:32:27.427Z,972.42
2022-11-15T10:33:27.345Z,972.38
2022-11-15T10:34:27.275Z,972.42
2022-11-15T10:35:27.192Z,972.40
2022-11-15T10:36:27.119Z,972.39
2022-11-15T10:37:27.044Z,972.37
2022-11-15T10:38:26.959Z,972.37
2022-11-15T10:39:26.881Z,972.36
2022-11-15T10:40:26.810Z,972.35
2022-11-15T10:41:26.731Z,972.34
2022-11-15T10:42:26.653Z,972.28
2022-11-15T10:43:26.573Z,972.30
2022-11-15T10:44:26.495Z,972.29
2022-11-15T10:45:26.415Z,972.25
2022-11-15T10:46:46.689Z,972.24
2022-11-15T10:47:26.263Z,972.21
2022-11-15T10:48:26.182Z,972.20
2022-11-15T10:49:26.105Z,972.19
2022-11-15T10:50:26.030Z,972.17
2022-11-15T10:51:25.951Z,972.14
2022-11-15T10:52:25.873Z,972.13
2022-11-15T10:53:25.814Z,972.11
2022-11-15T10:54:25.720Z,972.11
2022-11-15T10:55:25.642Z,972.14
2022-11-15T10:56:25.570Z,972.07
2022-11-15T10:57:25.484Z,972.06
2022-11-15T10:58:25.410Z,972.07
2022-11-15T10:59:25.330Z,972.07
2022-11-15T11:00:25.252Z,972.07
2022-11-15T11:01:25.217Z,972.04
2022-11-15T11:02:25.103Z,972.06
2022-11-15T11:03:25.022Z,972.05
2022-11-15T11:04:24.947Z,972.05
2022-11-15T11:05:24.864Z,972.04
2022-11-15T11:06:24.797Z,972.02
2022-11-15T11:07:24.904Z,972.01
2022-11-15T11:08:24.634Z,971.97
2022-11-15T11:09:24.557Z,971.99
2022-11-15T11:10:55.008Z,971.97
2022-11-15T11:11:24.404Z,971.92
2022-11-15T11:12:24.325Z,971.92
2022-11-15T11:13:24.261Z,971.91
2022-11-15T11:14:24.185Z,971.90
2022-11-15T11:15:24.093Z,971.89
2022-11-15T11:16:24.019Z,971.95
2022-11-15T11:17:23.949Z,971.90
2022-11-15T11:18:23.859Z,971.90
2022-11-15T11:19:23.782Z,971.87
2022-11-15T11:20:23.708Z,971.90
2022-11-15T11:21:28.904Z,971.85
2022-11-15T11:22:23.553Z,971.84
2022-11-15T11:23:23.478Z,971.79
2022-11-15T11:24:23.401Z,971.78
2022-11-15T11:25:23.320Z,971.75
2022-11-15T11:26:23.244Z,971.76
2022-11-15T11:27:23.167Z,971.79
2022-11-15T11:28:23.091Z,971.76
2022-11-15T11:29:23.007Z,971.77
2022-11-15T11:30:22.938Z,971.75
2022-11-15T11:31:22.857Z,971.73
2022-11-15T11:32:22.781Z,971.74
2022-11-15T11:33:22.704Z,971.74
2022-11-15T11:34:22.623Z,971.68
2022-11-15T11:35:22.551Z,971.74
2022-11-15T11:36:22.473Z,971.66
2022-11-15T11:37:22.397Z,971.62
2022-11-15T11:38:22.317Z,971.65
2022-11-15T11:39:22.237Z,971.66
2022-11-15T11:40:22.165Z,971.67
2022-11-15T11:41:22.082Z,971.64
2022-11-15T11:42:22.006Z,971.62
2022-11-15T11:43:21.930Z,971.60
2022-11-15T11:44:21.853Z,971.59
2022-11-15T11:45:21.770Z,971.56
2022-11-15T11:46:21.699Z,971.59
2022-11-15T11:47:21.620Z,971.60
2022-11-15T11:48:21.545Z,971.58
2022-11-15T11:49:21.464Z,971.55
2022-11-15T11:50:21.389Z,971.55
2022-11-15T11:51:21.316Z,971.48
2022-11-15T11:52:21.234Z,971.54
2022-11-15T11:53:21.160Z,971.53
2022-11-15T11:54:21.286Z,971.52
2022-11-15T11:55:21.006Z,971.49
2022-11-15T11:56:20.923Z,971.44
2022-11-15T11:57:20.848Z,971.44
2022-11-15T11:58:20.767Z,971.41
2022-11-15T11:59:20.692Z,971.41
2022-11-15T12:00:20.612Z,971.36
2022-11-15T12:01:20.546Z,971.35
2022-11-15T12:02:20.521Z,971.33
2022-11-15T12:03:20.416Z,971.33
2022-11-15T12:04:20.307Z,971.27
2022-11-15T12:05:20.230Z,971.23
2022-11-15T12:06:20.149Z,971.20
2022-11-15T12:07:20.121Z,971.19
2022-11-15T12:08:19.993Z,971.20
2022-11-15T12:09:19.919Z,971.21
2022-11-15T12:10:19.844Z,971.23
2022-11-15T12:11:19.770Z,971.25
2022-11-15T12:12:19.688Z,971.21
2022-11-15T12:13:19.614Z,971.32
2022-11-15T12:14:19.539Z,971.24
2022-11-15T12:15:19.456Z,971.27
2022-11-15T12:16:19.384Z,971.26
2022-11-15T12:17:19.303Z,971.22
2022-11-15T12:18:19.225Z,971.25
2022-11-15T12:19:19.152Z,971.24
2022-11-15T12:20:19.070Z,971.28
2022-11-15T12:21:22.780Z,971.26
2022-11-15T12:22:18.920Z,971.25
2022-11-15T12:23:18.841Z,971.22
2022-11-15T12:24:18.784Z,971.21
2022-11-15T12:25:18.690Z,971.24
2022-11-15T12:26:18.616Z,971.20
2022-11-15T12:27:23.272Z,971.21